createdAt,value
2023-04-15T00:00:10.846Z,5.30
2023-04-15T00:03:02.532Z,6.40
2023-04-15T00:05:31.792Z,5.20
2023-04-15T00:08:01.590Z,4.10
2023-04-15T00:10:29.654Z,7.00
2023-04-15T00:12:57.737Z,7.00
2023-04-15T00:15:25.913Z,6.10
2023-04-15T00:17:54.242Z,4.10
2023-04-15T00:20:22.782Z,5.20
2023-04-15T00:22:50.833Z,3.80
2023-04-15T00:25:18.913Z,5.40
2023-04-15T00:27:46.977Z,4.40
2023-04-15T00:30:16.284Z,3.50
2023-04-15T00:32:44.879Z,4.70
2023-04-15T00:35:13.039Z,3.70
2023-04-15T00:37:41.217Z,4.10
2023-04-15T00:40:14.019Z,4.70
2023-04-15T00:42:42.168Z,4.30
2023-04-15T00:45:11.258Z,5.90
2023-04-15T00:47:42.431Z,4.80
2023-04-15T00:50:12.790Z,4.30
2023-04-15T00:52:41.732Z,2.80
2023-04-15T00:55:10.209Z,3.80
2023-04-15T00:57:40.016Z,2.70
2023-04-15T01:00:09.504Z,3.80
2023-04-15T01:02:39.335Z,3.00
2023-04-15T01:05:08.678Z,5.80
2023-04-15T01:07:36.966Z,5.70
2023-04-15T01:10:05.632Z,6.40
2023-04-15T01:12:34.494Z,5.00
2023-04-15T01:15:02.763Z,4.90
2023-04-15T01:17:31.075Z,6.20
2023-04-15T01:20:00.066Z,4.10
2023-04-15T01:22:29.032Z,6.40
2023-04-15T01:25:10.720Z,6.20
2023-04-15T01:27:42.659Z,7.60
2023-04-15T01:30:11.785Z,7.70
2023-04-15T01:32:39.893Z,6.40
2023-04-15T01:35:09.037Z,5.70
2023-04-15T01:37:37.219Z,5.80
2023-04-15T01:40:06.165Z,7.40
2023-04-15T01:42:36.682Z,5.00
2023-04-15T01:45:05.503Z,5.30
2023-04-15T01:47:33.855Z,5.40
2023-04-15T01:50:02.096Z,5.70
2023-04-15T01:52:30.678Z,7.90
2023-04-15T01:54:58.851Z,6.00
2023-04-15T01:57:27.229Z,6.70
2023-04-15T01:59:55.232Z,5.50
2023-04-15T02:02:23.596Z,6.70
2023-04-15T02:04:51.851Z,6.10
2023-04-15T02:07:19.924Z,6.10
2023-04-15T02:09:47.914Z,4.60
2023-04-15T02:12:15.963Z,4.30
2023-04-15T02:14:44.051Z,5.80
2023-04-15T02:17:12.214Z,6.80
2023-04-15T02:19:41.296Z,5.90
2023-04-15T02:22:09.467Z,6.90
2023-04-15T02:24:37.386Z,7.40
2023-04-15T02:27:05.415Z,5.40
2023-04-15T02:29:33.422Z,5.70
2023-04-15T02:32:02.236Z,5.70
2023-04-15T02:34:31.681Z,5.00
2023-04-15T02:36:59.958Z,6.70
2023-04-15T02:39:28.244Z,9.30
2023-04-15T02:41:57.030Z,5.20
2023-04-15T02:44:25.221Z,6.40
2023-04-15T02:46:55.225Z,6.10
2023-04-15T02:49:23.417Z,6.90
2023-04-15T02:51:52.380Z,6.50
2023-04-15T02:54:22.919Z,5.00
2023-04-15T02:56:51.197Z,6.70
2023-04-15T02:59:19.242Z,4.60
2023-04-15T03:01:47.495Z,7.60
2023-04-15T03:04:15.879Z,5.70
2023-04-15T03:06:44.093Z,7.00
2023-04-15T03:09:12.669Z,6.60
2023-04-15T03:11:42.237Z,8.70
2023-04-15T03:14:11.389Z,8.20
2023-04-15T03:16:42.520Z,7.20
2023-04-15T03:19:10.921Z,7.70
2023-04-15T03:21:40.115Z,9.00
2023-04-15T03:24:08.275Z,6.10
2023-04-15T03:26:37.159Z,5.70
2023-04-15T03:29:11.373Z,8.30
2023-04-15T03:31:42.210Z,7.70
2023-04-15T03:34:10.190Z,9.60
2023-04-15T03:36:38.676Z,6.70
2023-04-15T03:39:06.675Z,8.50
2023-04-15T03:41:34.706Z,7.00
2023-04-15T03:44:02.652Z,8.10
2023-04-15T03:46:30.986Z,8.10
2023-04-15T03:48:59.540Z,6.80
2023-04-15T03:51:27.808Z,7.40
2023-04-15T03:53:56.292Z,10.20
2023-04-15T03:56:25.378Z,8.60
2023-04-15T03:58:53.363Z,6.60
2023-04-15T04:01:21.529Z,5.70
2023-04-15T04:03:50.109Z,7.30
2023-04-15T04:06:18.600Z,7.10
2023-04-15T04:08:46.773Z,13.20
2023-04-15T04:11:14.840Z,8.60
2023-04-15T04:13:42.956Z,6.70
2023-04-15T04:16:11.317Z,16.80
2023-04-15T04:18:39.415Z,6.80
2023-04-15T04:21:07.645Z,5.60
2023-04-15T04:23:35.825Z,9.20
2023-04-15T04:26:03.989Z,8.10
2023-04-15T04:28:32.361Z,6.70
2023-04-15T04:31:00.451Z,6.20
2023-04-15T04:33:28.474Z,5.80
2023-04-15T04:35:56.787Z,6.60
2023-04-15T04:38:25.048Z,6.80
2023-04-15T04:40:53.136Z,10.00
2023-04-15T04:43:21.309Z,7.80
2023-04-15T04:45:49.366Z,6.90
2023-04-15T04:48:17.656Z,6.80
2023-04-15T04:50:47.163Z,6.00
2023-04-15T04:53:15.447Z,7.20
2023-04-15T04:55:43.510Z,8.60
2023-04-15T04:58:11.782Z,5.70
2023-04-15T05:00:40.885Z,6.30
2023-04-15T05:03:09.503Z,5.40
2023-04-15T05:05:39.706Z,6.50
2023-04-15T05:08:08.173Z,8.00
2023-04-15T05:10:36.590Z,6.50
2023-04-15T05:13:04.726Z,7.20
2023-04-15T05:15:33.646Z,5.90
2023-04-15T05:18:01.865Z,5.50
2023-04-15T05:20:30.147Z,6.30
2023-04-15T05:22:58.240Z,9.40
2023-04-15T05:25:26.310Z,4.80
2023-04-15T05:27:54.382Z,4.70
2023-04-15T05:30:22.562Z,5.60
2023-04-15T05:32:51.163Z,4.30
2023-04-15T05:35:19.231Z,4.80
2023-04-15T05:37:47.494Z,4.90
2023-04-15T05:40:15.794Z,4.20
2023-04-15T05:42:43.836Z,6.00
2023-04-15T05:45:12.517Z,5.80
2023-04-15T05:47:40.505Z,5.80
2023-04-15T05:50:09.477Z,7.10
2023-04-15T05:52:37.669Z,10.00
2023-04-15T05:55:06.647Z,5.40
2023-04-15T05:57:34.718Z,4.80
2023-04-15T06:00:02.832Z,3.30
2023-04-15T06:02:38.024Z,8.00
2023-04-15T06:05:09.888Z,5.60
2023-04-15T06:07:38.991Z,5.20
2023-04-15T06:10:08.035Z,3.80
2023-04-15T06:12:36.359Z,5.60
2023-04-15T06:15:06.763Z,4.90
2023-04-15T06:17:34.906Z,7.90
2023-04-15T06:20:03.750Z,5.10
2023-04-15T06:22:31.923Z,7.10
2023-04-15T06:25:00.213Z,3.80
2023-04-15T06:27:28.379Z,4.30
2023-04-15T06:29:56.708Z,4.50
2023-04-15T06:32:24.858Z,4.30
2023-04-15T06:34:52.750Z,4.80
2023-04-15T06:37:20.869Z,4.80
2023-04-15T06:39:48.936Z,4.00
2023-04-15T06:42:17.122Z,5.40
2023-04-15T06:44:45.256Z,7.00
2023-04-15T06:47:14.813Z,6.60
2023-04-15T06:49:43.421Z,6.00
2023-04-15T06:52:11.658Z,7.10
2023-04-15T06:54:39.804Z,4.90
2023-04-15T06:57:09.464Z,4.20
2023-04-15T06:59:37.494Z,3.40
2023-04-15T07:02:05.790Z,4.30
2023-04-15T07:04:34.061Z,6.20
2023-04-15T07:07:02.704Z,6.90
2023-04-15T07:09:30.809Z,4.90
2023-04-15T07:11:58.885Z,4.60
2023-04-15T07:14:28.080Z,3.70
2023-04-15T07:16:56.608Z,4.00
2023-04-15T07:19:24.933Z,3.60
2023-04-15T07:21:53.214Z,3.20
2023-04-15T07:24:21.388Z,6.30
2023-04-15T07:26:49.783Z,4.40
2023-04-15T07:29:17.954Z,7.30
2023-04-15T07:31:45.895Z,4.90
2023-04-15T07:34:13.993Z,7.30
2023-04-15T07:36:42.676Z,5.40
2023-04-15T07:39:11.160Z,4.20
2023-04-15T07:41:39.239Z,3.30
2023-04-15T07:44:07.232Z,3.30
2023-04-15T07:46:35.567Z,4.90
2023-04-15T07:49:04.398Z,4.80
2023-04-15T07:51:33.156Z,3.60
2023-04-15T07:54:01.226Z,4.40
2023-04-15T07:56:29.491Z,3.70
2023-04-15T07:58:57.479Z,3.60
2023-04-15T08:01:25.536Z,2.80
2023-04-15T08:03:53.896Z,3.20
2023-04-15T08:06:22.178Z,3.90
2023-04-15T08:08:50.474Z,3.40
2023-04-15T08:11:18.652Z,3.70
2023-04-15T08:13:47.411Z,5.20
2023-04-15T08:16:23.665Z,11.00
2023-04-15T08:18:54.218Z,7.90
2023-04-15T08:21:22.973Z,5.80
2023-04-15T08:23:52.684Z,3.60
2023-04-15T08:26:21.814Z,4.40
2023-04-15T08:28:50.502Z,3.90
2023-04-15T08:31:19.431Z,4.20
2023-04-15T08:33:47.468Z,5.30
2023-04-15T08:36:15.550Z,3.20
2023-04-15T08:38:44.751Z,2.70
2023-04-15T08:41:25.668Z,5.60
2023-04-15T08:44:04.335Z,2.40
2023-04-15T08:46:34.973Z,2.10
2023-04-15T08:49:05.421Z,4.30
2023-04-15T08:51:34.293Z,3.30
2023-04-15T08:54:02.968Z,3.30
2023-04-15T08:56:36.040Z,3.50
2023-04-15T08:59:05.501Z,3.30
2023-04-15T09:01:33.837Z,3.10
2023-04-15T09:04:03.564Z,3.40
2023-04-15T09:06:31.626Z,3.10
2023-04-15T09:09:00.147Z,2.40
2023-04-15T09:11:31.538Z,3.20
2023-04-15T09:13:59.629Z,4.00
2023-04-15T09:16:28.633Z,3.50
2023-04-15T09:18:56.689Z,3.40
2023-04-15T09:21:25.069Z,2.70
2023-04-15T09:24:01.973Z,3.20
2023-04-15T09:26:40.520Z,4.00
2023-04-15T09:29:13.747Z,2.30
2023-04-15T09:31:43.610Z,2.30
2023-04-15T09:34:11.971Z,2.40
2023-04-15T09:36:51.990Z,4.60
2023-04-15T09:39:20.786Z,4.10
2023-04-15T09:42:09.234Z,1.80
2023-04-15T09:44:37.813Z,3.00
2023-04-15T09:47:06.403Z,2.30
2023-04-15T09:49:34.598Z,2.30
2023-04-15T09:52:05.795Z,3.00
2023-04-15T09:54:36.654Z,3.80
2023-04-15T09:57:10.896Z,4.20
2023-04-15T09:59:39.048Z,5.60
2023-04-15T10:02:09.984Z,3.60
2023-04-15T10:04:41.728Z,3.60
2023-04-15T10:07:13.013Z,5.80
2023-04-15T10:09:41.885Z,48.00
2023-04-15T10:12:10.474Z,9.70
2023-04-15T10:14:39.131Z,9.30
2023-04-15T10:17:11.169Z,9.80
2023-04-15T10:19:39.293Z,7.00
2023-04-15T10:22:08.322Z,7.70
2023-04-15T10:24:39.116Z,4.20
2023-04-15T10:27:07.993Z,7.80
2023-04-15T10:29:36.702Z,6.10
2023-04-15T10:32:05.626Z,2.80
2023-04-15T10:34:34.891Z,1.60
2023-04-15T10:37:06.950Z,3.80
2023-04-15T10:39:34.977Z,4.20
2023-04-15T10:42:18.238Z,2.10
2023-04-15T10:44:53.496Z,2.60
2023-04-15T10:47:22.403Z,1.90
2023-04-15T10:49:53.201Z,4.30
2023-04-15T10:52:28.720Z,3.50
2023-04-15T10:55:24.207Z,5.30
2023-04-15T10:57:54.716Z,2.40
2023-04-15T11:00:26.486Z,13.00
2023-04-15T11:02:57.121Z,1.80
2023-04-15T11:05:53.664Z,1.20
2023-04-15T11:08:53.655Z,3.60
2023-04-15T11:11:21.934Z,3.20
2023-04-15T11:13:52.645Z,3.30
2023-04-15T11:16:21.696Z,3.40
2023-04-15T11:18:56.528Z,3.80
2023-04-15T11:21:26.856Z,6.10
2023-04-15T11:23:55.003Z,3.50
2023-04-15T11:26:27.422Z,1.90
2023-04-15T11:28:55.534Z,2.40
2023-04-15T11:31:28.740Z,9.20
2023-04-15T11:33:59.506Z,3.70
2023-04-15T11:36:29.583Z,3.20
2023-04-15T11:38:59.462Z,2.90
2023-04-15T11:41:27.680Z,1.90
2023-04-15T11:43:55.738Z,2.50
2023-04-15T11:46:31.318Z,1.50
2023-04-15T11:49:00.338Z,2.80
2023-04-15T11:51:33.293Z,3.90
2023-04-15T11:54:01.643Z,2.30
2023-04-15T11:56:30.078Z,3.50
2023-04-15T11:59:02.298Z,2.20
2023-04-15T12:01:40.010Z,3.80
2023-04-15T12:04:13.674Z,3.30
2023-04-15T12:06:42.315Z,2.30
2023-04-15T12:09:12.514Z,3.60
2023-04-15T12:11:57.580Z,3.00
2023-04-15T12:14:28.443Z,2.00
2023-04-15T12:17:05.019Z,1.80
2023-04-15T12:19:45.746Z,3.90
2023-04-15T12:22:16.442Z,3.00
2023-04-15T12:24:48.172Z,2.30
2023-04-15T12:27:17.731Z,2.30
2023-04-15T12:29:45.920Z,5.20
2023-04-15T12:32:16.360Z,5.00
2023-04-15T12:34:52.082Z,1.30
2023-04-15T12:37:21.191Z,1.70
2023-04-15T12:39:50.495Z,5.10
2023-04-15T12:42:18.980Z,2.60
2023-04-15T12:44:47.550Z,1.80
2023-04-15T12:47:15.930Z,5.20
2023-04-15T12:49:44.002Z,6.00
2023-04-15T12:52:11.980Z,7.10
2023-04-15T12:54:40.058Z,2.80
2023-04-15T12:57:08.436Z,5.70
2023-04-15T12:59:36.644Z,7.10
2023-04-15T13:02:05.134Z,2.30
2023-04-15T13:04:33.549Z,1.40
2023-04-15T13:07:02.873Z,3.00
2023-04-15T13:09:31.229Z,2.00
2023-04-15T13:11:59.543Z,3.30
2023-04-15T13:14:27.574Z,3.20
2023-04-15T13:16:55.673Z,3.40
2023-04-15T13:19:23.752Z,1.70
2023-04-15T13:21:51.832Z,2.60
2023-04-15T13:24:19.978Z,2.60
2023-04-15T13:26:50.140Z,1.80
2023-04-15T13:29:18.588Z,5.50
2023-04-15T13:31:46.659Z,2.60
2023-04-15T13:34:14.821Z,4.50
2023-04-15T13:36:42.904Z,6.80
2023-04-15T13:39:10.875Z,6.10
2023-04-15T13:41:38.939Z,10.80
2023-04-15T13:44:07.453Z,12.70
2023-04-15T13:46:35.921Z,2.00
2023-04-15T13:49:03.969Z,3.00
2023-04-15T13:51:33.067Z,3.90
2023-04-15T13:54:01.141Z,2.50
2023-04-15T13:56:29.821Z,2.50
2023-04-15T13:59:02.406Z,2.10
2023-04-15T14:01:30.682Z,1.70
2023-04-15T14:03:58.812Z,2.10
2023-04-15T14:06:28.250Z,4.60
2023-04-15T14:08:56.314Z,2.60
2023-04-15T14:11:24.592Z,4.70
2023-04-15T14:13:52.705Z,14.10
2023-04-15T14:16:21.072Z,3.60
2023-04-15T14:18:49.221Z,2.70
2023-04-15T14:21:17.302Z,3.50
2023-04-15T14:23:45.462Z,4.90
2023-04-15T14:26:14.278Z,4.00
2023-04-15T14:28:45.099Z,6.90
2023-04-15T14:31:14.464Z,2.10
2023-04-15T14:33:42.675Z,5.30
2023-04-15T14:36:11.146Z,1.70
2023-04-15T14:38:40.147Z,2.40
2023-04-15T14:41:09.527Z,3.70
2023-04-15T14:43:39.362Z,2.50
2023-04-15T14:46:08.689Z,3.30
2023-04-15T14:48:37.395Z,3.50
2023-04-15T14:51:06.016Z,3.10
2023-04-15T14:53:34.408Z,5.30
2023-04-15T14:56:02.376Z,2.20
2023-04-15T14:58:30.447Z,3.70
2023-04-15T15:00:59.036Z,4.10
2023-04-15T15:03:27.356Z,1.70
2023-04-15T15:05:55.684Z,3.80
2023-04-15T15:08:24.268Z,3.60
2023-04-15T15:10:52.344Z,3.40
2023-04-15T15:13:20.521Z,3.70
2023-04-15T15:15:51.690Z,3.30
2023-04-15T15:18:20.149Z,2.40
2023-04-15T15:20:48.249Z,4.50
2023-04-15T15:23:16.601Z,4.40
2023-04-15T15:25:47.399Z,2.00
2023-04-15T15:28:15.602Z,2.60
2023-04-15T15:30:43.673Z,2.80
2023-04-15T15:33:12.271Z,5.70
2023-04-15T15:35:41.042Z,2.40
2023-04-15T15:38:11.678Z,3.50
2023-04-15T15:40:39.863Z,6.80
2023-04-15T15:43:08.233Z,17.20
2023-04-15T15:45:36.308Z,7.80
2023-04-15T15:48:05.200Z,3.00
2023-04-15T15:50:34.696Z,4.90
2023-04-15T15:53:02.906Z,7.00
2023-04-15T15:55:31.559Z,5.10
2023-04-15T15:57:59.628Z,5.80
2023-04-15T16:00:27.801Z,6.10
2023-04-15T16:03:06.825Z,4.10
2023-04-15T16:05:36.645Z,3.20
2023-04-15T16:08:05.510Z,2.20
2023-04-15T16:10:33.917Z,5.70
2023-04-15T16:13:03.168Z,1.60
2023-04-15T16:15:31.499Z,4.80
2023-04-15T16:17:59.690Z,3.80
2023-04-15T16:20:29.090Z,2.50
2023-04-15T16:22:58.456Z,3.00
2023-04-15T16:25:26.549Z,1.90
2023-04-15T16:28:05.521Z,4.80
2023-04-15T16:30:38.033Z,2.60
2023-04-15T16:33:07.793Z,4.40
2023-04-15T16:35:36.271Z,4.00
2023-04-15T16:38:04.515Z,2.40
2023-04-15T16:40:33.204Z,2.50
2023-04-15T16:43:03.529Z,4.20
2023-04-15T16:45:31.721Z,3.40
2023-04-15T16:47:59.795Z,3.50
2023-04-15T16:50:28.059Z,3.20
2023-04-15T16:52:56.113Z,5.50
2023-04-15T16:55:24.219Z,4.40
2023-04-15T16:58:01.723Z,4.00
2023-04-15T17:00:33.126Z,3.10
2023-04-15T17:03:01.789Z,9.10
2023-04-15T17:05:33.670Z,4.00
2023-04-15T17:08:01.950Z,3.70
2023-04-15T17:10:31.369Z,5.10
2023-04-15T17:13:00.251Z,2.70
2023-04-15T17:15:28.588Z,14.10
2023-04-15T17:17:56.712Z,7.50
2023-04-15T17:20:26.569Z,8.30
2023-04-15T17:22:54.792Z,5.80
2023-04-15T17:25:23.265Z,5.00
2023-04-15T17:27:51.444Z,9.20
2023-04-15T17:30:19.751Z,4.20
2023-04-15T17:32:47.911Z,12.60
2023-04-15T17:35:16.489Z,2.40
2023-04-15T17:37:44.542Z,4.70
2023-04-15T17:40:12.922Z,5.80
2023-04-15T17:42:41.612Z,10.50
2023-04-15T17:45:10.504Z,5.20
2023-04-15T17:47:38.629Z,11.20
2023-04-15T17:50:08.092Z,9.60
2023-04-15T17:52:36.060Z,5.20
2023-04-15T17:55:04.735Z,5.40
2023-04-15T17:57:32.902Z,6.10
2023-04-15T18:00:00.980Z,11.40
2023-04-15T18:02:29.163Z,13.50
2023-04-15T18:04:57.672Z,9.50
2023-04-15T18:07:26.017Z,9.50
2023-04-15T18:09:56.073Z,10.40
2023-04-15T18:12:24.227Z,10.20
2023-04-15T18:14:52.993Z,10.00
2023-04-15T18:17:21.255Z,6.10
2023-04-15T18:19:49.339Z,8.90
2023-04-15T18:22:17.822Z,6.80
2023-04-15T18:24:45.853Z,6.70
2023-04-15T18:27:14.273Z,7.20
2023-04-15T18:29:43.778Z,8.70
2023-04-15T18:32:11.758Z,9.50
2023-04-15T18:34:39.960Z,13.80
2023-04-15T18:37:08.099Z,11.40
2023-04-15T18:39:36.166Z,10.70
2023-04-15T18:42:04.346Z,12.10
2023-04-15T18:44:32.549Z,14.20
2023-04-15T18:47:01.530Z,42.90
2023-04-15T18:49:33.290Z,27.70
2023-04-15T18:52:01.279Z,25.10
2023-04-15T18:54:29.313Z,25.10
2023-04-15T18:56:57.480Z,18.80
2023-04-15T18:59:29.280Z,25.80
2023-04-15T19:02:00.284Z,19.60
2023-04-15T19:04:31.348Z,22.60
2023-04-15T19:06:59.806Z,26.00
2023-04-15T19:09:29.511Z,18.40
2023-04-15T19:11:57.792Z,21.80
2023-04-15T19:14:26.065Z,17.30
2023-04-15T19:16:54.387Z,13.80
2023-04-15T19:19:22.569Z,16.60
2023-04-15T19:21:51.171Z,17.40
2023-04-15T19:24:19.889Z,18.70
2023-04-15T19:26:50.415Z,30.80
2023-04-15T19:29:18.931Z,30.80
2023-04-15T19:31:47.172Z,35.30
2023-04-15T19:34:15.464Z,34.40
2023-04-15T19:36:43.529Z,34.30
2023-04-15T19:39:11.800Z,23.40
2023-04-15T19:41:39.872Z,19.50
2023-04-15T19:44:08.158Z,20.30
2023-04-15T19:46:36.242Z,20.40
2023-04-15T19:49:04.744Z,20.60
2023-04-15T19:51:33.148Z,16.90
2023-04-15T19:54:01.485Z,19.10
2023-04-15T19:56:30.393Z,18.70
2023-04-15T19:59:00.100Z,20.20
2023-04-15T20:01:28.354Z,19.50
2023-04-15T20:03:56.593Z,20.60
2023-04-15T20:06:25.200Z,25.40
2023-04-15T20:08:53.263Z,24.20
2023-04-15T20:11:22.375Z,24.60
2023-04-15T20:13:50.365Z,25.50
2023-04-15T20:16:18.333Z,30.40
2023-04-15T20:18:46.475Z,27.50
2023-04-15T20:21:14.399Z,25.50
2023-04-15T20:23:42.709Z,24.30
2023-04-15T20:26:10.801Z,23.60
2023-04-15T20:28:38.967Z,24.80
2023-04-15T20:31:07.124Z,25.90
2023-04-15T20:33:35.083Z,22.20
2023-04-15T20:36:03.178Z,21.00
2023-04-15T20:38:31.358Z,25.90
2023-04-15T20:40:59.515Z,24.40
2023-04-15T20:43:27.594Z,26.60
2023-04-15T20:45:57.537Z,30.00
2023-04-15T20:48:25.964Z,29.90
2023-04-15T20:50:54.279Z,28.80
2023-04-15T20:53:22.649Z,31.00
2023-04-15T20:55:50.654Z,27.00
2023-04-15T20:58:18.699Z,22.70
2023-04-15T21:00:47.333Z,35.30
2023-04-15T21:03:15.697Z,26.00
2023-04-15T21:05:44.130Z,24.10
2023-04-15T21:08:13.025Z,35.80
2023-04-15T21:10:41.515Z,36.40
2023-04-15T21:13:09.884Z,40.60
2023-04-15T21:15:37.984Z,38.10
2023-04-15T21:18:06.041Z,44.70
2023-04-15T21:20:34.111Z,46.70
2023-04-15T21:23:02.173Z,45.00
2023-04-15T21:25:30.451Z,40.20
2023-04-15T21:27:58.434Z,38.90
2023-04-15T21:30:26.587Z,35.70
2023-04-15T21:32:55.999Z,35.30
2023-04-15T21:35:24.090Z,35.90
2023-04-15T21:37:52.137Z,39.30
2023-04-15T21:40:20.317Z,43.50
2023-04-15T21:42:49.414Z,46.20
2023-04-15T21:45:17.687Z,45.60
2023-04-15T21:48:05.455Z,41.90
2023-04-15T21:50:33.896Z,35.80
2023-04-15T21:53:01.968Z,39.80
2023-04-15T21:55:30.274Z,38.20
2023-04-15T21:57:58.218Z,36.00
2023-04-15T22:00:26.287Z,32.00
2023-04-15T22:02:54.403Z,35.10
2023-04-15T22:05:22.733Z,32.80
2023-04-15T22:07:50.801Z,33.40
2023-04-15T22:10:19.808Z,29.20
2023-04-15T22:12:47.876Z,25.60
2023-04-15T22:15:17.086Z,36.00
2023-04-15T22:17:45.246Z,28.40
2023-04-15T22:20:13.935Z,28.40
2023-04-15T22:22:43.941Z,30.90
2023-04-15T22:25:12.830Z,30.20
2023-04-15T22:27:41.114Z,29.40
2023-04-15T22:30:10.716Z,29.30
2023-04-15T22:32:39.134Z,24.70
2023-04-15T22:35:07.844Z,26.80
2023-04-15T22:37:36.160Z,26.70
2023-04-15T22:40:04.744Z,27.30
2023-04-15T22:42:32.925Z,23.40
2023-04-15T22:45:01.111Z,25.00
2023-04-15T22:47:29.494Z,22.80
2023-04-15T22:49:57.645Z,27.50
2023-04-15T22:52:30.542Z,25.70
2023-04-15T22:54:59.799Z,27.20
2023-04-15T22:57:28.775Z,24.20
2023-04-15T22:59:56.899Z,27.20
2023-04-15T23:02:25.389Z,27.10
2023-04-15T23:04:54.037Z,24.30
2023-04-15T23:07:22.238Z,22.10
2023-04-15T23:09:50.724Z,23.70
2023-04-15T23:12:18.813Z,26.60
2023-04-15T23:14:46.864Z,23.10
2023-04-15T23:17:14.944Z,22.30
2023-04-15T23:19:43.016Z,22.80
2023-04-15T23:22:12.303Z,23.70
2023-04-15T23:24:40.598Z,24.40
2023-04-15T23:27:08.764Z,25.70
2023-04-15T23:29:36.824Z,21.60
2023-04-15T23:32:05.363Z,23.30
2023-04-15T23:34:33.688Z,18.20
2023-04-15T23:37:02.046Z,21.00
2023-04-15T23:39:33.114Z,26.40
2023-04-15T23:42:01.280Z,23.20
2023-04-15T23:44:29.353Z,26.70
2023-04-15T23:46:57.420Z,23.30
2023-04-15T23:49:25.805Z,24.00
2023-04-15T23:51:53.984Z,31.90
2023-04-15T23:54:22.053Z,24.80
2023-04-15T23:56:50.252Z,24.90
2023-04-15T23:59:18.305Z,24.40
